LQSA/SJJ METAR and TAF weather

Enter ICAO airport designator
Station Type Date Time Source
LQSA METAR 2021/02/24 17:00 UTC NOAA

LQSA 241700Z 14004KT CAVOK 10/03 Q1034 NOSIG


Station Type Date Time Source
LQSA Decoded METAR 2021/02/24 17:00 UTC NOAA

Sarajevo, Bosnia and Herzegovina (LQSA) 43-49N 018-20E 510M
Feb 24, 2021 - 12:00 PM EST / 2021.02.24 1700 UTC
Wind: from the SE (140 degrees) at 5 MPH (4 KT):0
Visibility: greater than 7 mile(s):0
Temperature: 50 F (10 C)
Dew Point: 37 F (3 C)
Relative Humidity: 61%
Pressure (altimeter): 30.53 in. Hg (1034 hPa)
ob: LQSA 241700Z 14004KT CAVOK 10/03 Q1034 NOSIG
cycle: 17

Station Type Date Time Source
LQSA TAF 2021/02/24 18:06 UTC NOAA

TAF TAF LQSA 241700Z 2418/2518 VRB02KT 6000 NSC TX20/2514Z TNM01/2506Z
BECMG 2503/2505 3000 BR PROB40 2505/2508 1200 BKN003
BECMG 2508/2510 CAVOK

Example: see airport list